createdAt,value
2022-09-07T00:01:06.002Z,141.10
2022-09-07T00:03:32.401Z,143.98
2022-09-07T00:05:58.713Z,142.10
2022-09-07T00:08:25.166Z,147.20
2022-09-07T00:10:51.657Z,140.10
2022-09-07T00:13:17.974Z,136.82
2022-09-07T00:15:44.340Z,139.15
2022-09-07T00:18:10.685Z,142.27
2022-09-07T00:20:37.085Z,139.88
2022-09-07T00:23:03.657Z,145.80
2022-09-07T00:25:32.043Z,140.75
2022-09-07T00:27:59.240Z,133.18
2022-09-07T00:30:25.570Z,136.48
2022-09-07T00:32:51.919Z,130.23
2022-09-07T00:35:18.313Z,122.28
2022-09-07T00:37:44.663Z,125.50
2022-09-07T00:40:11.233Z,129.40
2022-09-07T00:42:37.645Z,125.47
2022-09-07T00:45:03.949Z,116.15
2022-09-07T00:47:30.259Z,125.15
2022-09-07T00:49:56.748Z,119.93
2022-09-07T00:52:23.086Z,118.47
2022-09-07T00:54:49.761Z,116.35
2022-09-07T00:57:16.261Z,118.38
2022-09-07T00:59:42.564Z,112.88
2022-09-07T01:02:09.995Z,114.70
2022-09-07T01:04:36.759Z,119.40
2022-09-07T01:07:03.504Z,113.10
2022-09-07T01:09:30.068Z,115.70
2022-09-07T01:11:56.602Z,120.70
2022-09-07T01:14:23.070Z,117.65
2022-09-07T01:16:50.365Z,115.53
2022-09-07T01:19:17.073Z,115.38
2022-09-07T01:21:43.707Z,116.40
2022-09-07T01:24:10.147Z,112.57
2022-09-07T01:26:36.640Z,115.40
2022-09-07T01:29:03.081Z,111.25
2022-09-07T01:31:29.549Z,110.03
2022-09-07T01:33:55.841Z,108.05
2022-09-07T01:36:22.388Z,105.85
2022-09-07T01:38:48.884Z,107.85
2022-09-07T01:41:15.298Z,107.65
2022-09-07T01:43:41.990Z,106.65
2022-09-07T01:46:08.351Z,104.78
2022-09-07T01:48:34.699Z,103.18
2022-09-07T01:51:01.136Z,102.85
2022-09-07T01:53:27.446Z,100.13
2022-09-07T01:55:53.805Z,100.80
2022-09-07T01:58:20.119Z,103.63
2022-09-07T02:00:46.540Z,100.22
2022-09-07T02:03:13.184Z,99.78
2022-09-07T02:05:39.473Z,96.78
2022-09-07T02:08:05.811Z,95.35
2022-09-07T02:10:32.274Z,96.45
2022-09-07T02:12:58.578Z,94.95
2022-09-07T02:15:25.066Z,95.63
2022-09-07T02:17:51.347Z,95.43
2022-09-07T02:20:17.878Z,91.45
2022-09-07T02:22:44.230Z,88.78
2022-09-07T02:25:10.586Z,90.85
2022-09-07T02:27:36.928Z,88.20
2022-09-07T02:30:03.240Z,88.75
2022-09-07T02:32:29.576Z,89.50
2022-09-07T02:34:55.948Z,87.50
2022-09-07T02:37:22.429Z,85.07
2022-09-07T02:39:48.860Z,85.60
2022-09-07T02:42:15.425Z,82.95
2022-09-07T02:44:41.861Z,84.22
2022-09-07T02:47:08.139Z,83.38
2022-09-07T02:49:34.777Z,82.18
2022-09-07T02:52:01.233Z,79.90
2022-09-07T02:54:27.807Z,80.90
2022-09-07T02:56:54.777Z,80.00
2022-09-07T02:59:21.101Z,80.80
2022-09-07T03:01:47.528Z,75.20
2022-09-07T03:04:14.083Z,74.15
2022-09-07T03:06:40.405Z,76.38
2022-09-07T03:09:06.955Z,76.10
2022-09-07T03:11:34.669Z,77.03
2022-09-07T03:14:01.193Z,75.93
2022-09-07T03:16:27.755Z,75.50
2022-09-07T03:18:54.152Z,74.00
2022-09-07T03:21:20.500Z,72.15
2022-09-07T03:23:51.170Z,73.78
2022-09-07T03:26:18.174Z,70.55
2022-09-07T03:28:44.621Z,69.07
2022-09-07T03:31:10.997Z,70.95
2022-09-07T03:33:37.368Z,69.80
2022-09-07T03:36:03.821Z,70.53
2022-09-07T03:38:30.202Z,69.40
2022-09-07T03:40:56.641Z,67.28
2022-09-07T03:43:23.044Z,65.95
2022-09-07T03:45:49.640Z,67.28
2022-09-07T03:48:15.984Z,66.20
2022-09-07T03:50:42.297Z,64.82
2022-09-07T03:53:08.828Z,63.13
2022-09-07T03:55:35.184Z,63.25
2022-09-07T03:58:01.562Z,61.67
2022-09-07T04:00:27.973Z,59.97
2022-09-07T04:02:54.430Z,59.65
2022-09-07T04:05:20.837Z,59.53
2022-09-07T04:07:47.111Z,61.70
2022-09-07T04:10:13.749Z,60.15
2022-09-07T04:12:40.194Z,58.70
2022-09-07T04:15:06.597Z,58.35
2022-09-07T04:17:32.949Z,58.55
2022-09-07T04:19:59.361Z,58.72
2022-09-07T04:22:25.728Z,61.22
2022-09-07T04:24:52.089Z,56.40
2022-09-07T04:27:18.594Z,57.08
2022-09-07T04:29:45.092Z,57.10
2022-09-07T04:32:15.643Z,55.22
2022-09-07T04:34:42.414Z,54.80
2022-09-07T04:37:08.893Z,52.97
2022-09-07T04:39:35.373Z,53.88
2022-09-07T04:42:01.822Z,56.65
2022-09-07T04:44:28.099Z,52.55
2022-09-07T04:46:54.766Z,52.78
2022-09-07T04:49:21.124Z,53.67
2022-09-07T04:51:47.388Z,54.72
2022-09-07T04:54:13.725Z,54.58
2022-09-07T04:56:40.404Z,51.63
2022-09-07T04:59:06.738Z,53.65
2022-09-07T05:01:33.311Z,52.67
2022-09-07T05:03:59.837Z,51.63
2022-09-07T05:06:26.177Z,49.50
2022-09-07T05:08:52.468Z,51.25
2022-09-07T05:11:18.848Z,49.53
2022-09-07T05:13:45.744Z,48.72
2022-09-07T05:16:12.159Z,50.05
2022-09-07T05:18:38.528Z,49.72
2022-09-07T05:21:05.828Z,47.53
2022-09-07T05:23:32.192Z,48.53
2022-09-07T05:25:58.538Z,48.60
2022-09-07T05:28:25.024Z,46.08
2022-09-07T05:36:24.377Z,44.53
2022-09-07T05:38:50.873Z,38.13
2022-09-07T05:41:17.467Z,33.25
2022-09-07T05:46:30.306Z,24.13
2022-09-07T05:48:56.821Z,17.70
2022-09-07T05:51:23.366Z,18.52
2022-09-07T05:53:50.183Z,22.33
2022-09-07T05:56:16.760Z,21.63
2022-09-07T05:58:43.457Z,21.35
2022-09-07T06:01:09.843Z,23.80
2022-09-07T06:03:36.512Z,24.92
2022-09-07T06:06:02.806Z,25.17
2022-09-07T06:08:29.432Z,25.77
2022-09-07T06:10:56.097Z,26.27
2022-09-07T06:13:22.509Z,25.83
2022-09-07T06:15:49.037Z,26.77
2022-09-07T06:18:15.748Z,22.98
2022-09-07T06:20:42.087Z,26.08
2022-09-07T06:23:08.812Z,23.33
2022-09-07T06:25:35.266Z,24.25
2022-09-07T06:28:01.760Z,24.10
2022-09-07T06:30:28.262Z,23.38
2022-09-07T06:32:54.640Z,24.08
2022-09-07T06:35:21.977Z,22.80
2022-09-07T06:37:48.388Z,23.60
2022-09-07T06:40:14.800Z,21.83
2022-09-07T06:42:41.327Z,22.30
2022-09-07T06:45:08.202Z,22.45
2022-09-07T06:47:34.748Z,22.38
2022-09-07T06:50:01.060Z,21.08
2022-09-07T06:52:28.232Z,20.98
2022-09-07T06:57:23.819Z,15.48
2022-09-07T06:59:50.166Z,15.40
2022-09-07T07:02:16.744Z,13.82
2022-09-07T07:04:43.124Z,14.30
2022-09-07T07:07:09.562Z,17.88
2022-09-07T07:09:36.396Z,19.42
2022-09-07T07:12:02.773Z,15.50
2022-09-07T07:14:33.724Z,17.27
2022-09-07T07:17:01.646Z,17.38
2022-09-07T07:19:27.977Z,16.40
2022-09-07T07:24:40.834Z,16.33
2022-09-07T07:27:07.482Z,11.63
2022-09-07T07:29:33.786Z,10.65
2022-09-07T07:32:00.108Z,11.93
2022-09-07T07:34:26.726Z,13.93
2022-09-07T07:36:53.097Z,13.00
2022-09-07T07:42:06.378Z,12.07
2022-09-07T07:44:32.766Z,13.55
2022-09-07T07:46:59.157Z,10.50
2022-09-07T07:49:25.558Z,11.55
2022-09-07T07:54:38.145Z,12.45
2022-09-07T07:57:04.790Z,12.73
2022-09-07T07:59:31.502Z,11.30
2022-09-07T08:01:57.918Z,11.80
2022-09-07T08:04:24.336Z,13.23
2022-09-07T08:06:50.729Z,12.00
2022-09-07T08:09:17.153Z,11.77
2022-09-07T08:11:43.835Z,11.13
2022-09-07T08:14:10.068Z,10.95
2022-09-07T08:16:36.440Z,15.80
2022-09-07T08:19:02.831Z,11.23
2022-09-07T08:21:29.200Z,10.55
2022-09-07T08:23:55.483Z,11.10
2022-09-07T08:26:21.984Z,11.27
2022-09-07T08:28:48.272Z,11.60
2022-09-07T08:31:14.679Z,10.52
2022-09-07T08:33:41.081Z,11.18
2022-09-07T08:36:07.430Z,10.50
2022-09-07T08:38:33.758Z,10.60
2022-09-07T08:41:00.019Z,10.13
2022-09-07T08:43:26.485Z,10.57
2022-09-07T08:45:52.810Z,11.02
2022-09-07T08:48:19.163Z,11.05
2022-09-07T08:50:45.551Z,9.63
2022-09-07T08:53:11.890Z,10.50
2022-09-07T08:55:38.304Z,9.40
2022-09-07T08:58:04.644Z,10.40
2022-09-07T09:00:31.085Z,9.88
2022-09-07T09:05:43.758Z,10.15
2022-09-07T09:08:10.328Z,10.25
2022-09-07T09:10:36.750Z,10.18
2022-09-07T09:13:03.033Z,10.30
2022-09-07T09:15:29.322Z,9.70
2022-09-07T09:17:55.638Z,12.07
2022-09-07T09:20:22.105Z,10.00
2022-09-07T09:22:48.544Z,13.23
2022-09-07T09:25:14.993Z,10.20
2022-09-07T09:27:41.353Z,10.48
2022-09-07T09:30:07.783Z,9.65
2022-09-07T09:32:34.189Z,10.00
2022-09-07T09:35:00.574Z,10.40
2022-09-07T09:37:26.986Z,11.77
2022-09-07T09:39:55.447Z,10.10
2022-09-07T09:42:24.421Z,9.93
2022-09-07T09:44:51.693Z,9.98
2022-09-07T09:47:33.455Z,10.20
2022-09-07T09:49:59.930Z,9.68
2022-09-07T09:52:29.900Z,9.48
2022-09-07T09:55:03.414Z,10.52
2022-09-07T09:57:39.246Z,10.10
2022-09-07T10:00:10.957Z,13.82
2022-09-07T10:05:26.401Z,11.63
2022-09-07T10:07:52.938Z,11.80
2022-09-07T10:10:19.250Z,11.05
2022-09-07T10:12:45.877Z,9.85
2022-09-07T10:15:12.415Z,12.48
2022-09-07T10:17:39.719Z,10.50
2022-09-07T10:20:06.209Z,13.15
2022-09-07T10:22:32.541Z,13.48
2022-09-07T10:24:58.905Z,12.70
2022-09-07T10:27:25.330Z,15.70
2022-09-07T10:29:51.713Z,11.48
2022-09-07T10:32:17.998Z,10.98
2022-09-07T10:34:44.578Z,19.55
2022-09-07T10:37:11.309Z,14.85
2022-09-07T10:39:37.688Z,15.27
2022-09-07T10:42:04.051Z,15.73
2022-09-07T10:44:30.711Z,12.85
2022-09-07T10:46:57.727Z,12.43
2022-09-07T10:49:25.273Z,12.30
2022-09-07T10:51:52.186Z,17.63
2022-09-07T10:54:34.329Z,12.30
2022-09-07T10:57:01.448Z,11.57
2022-09-07T11:00:07.410Z,10.90
2022-09-07T11:02:14.256Z,12.10
2022-09-07T11:04:40.530Z,13.55
2022-09-07T11:07:06.802Z,13.52
2022-09-07T11:09:33.080Z,12.10
2022-09-07T11:12:01.066Z,12.45
2022-09-07T11:14:27.952Z,11.63
2022-09-07T11:16:54.356Z,14.23
2022-09-07T11:19:37.481Z,13.07
2022-09-07T11:22:04.352Z,13.27
2022-09-07T11:24:30.701Z,10.95
2022-09-07T11:26:57.014Z,11.82
2022-09-07T11:29:30.600Z,10.38
2022-09-07T11:31:56.975Z,12.70
2022-09-07T11:34:24.715Z,10.50
2022-09-07T11:36:51.302Z,11.32
2022-09-07T11:39:17.601Z,11.30
2022-09-07T11:41:43.968Z,11.73
2022-09-07T11:44:10.525Z,11.13
2022-09-07T11:46:36.948Z,13.10
2022-09-07T11:50:38.838Z,16.95
2022-09-07T11:53:05.196Z,13.93
2022-09-07T11:55:31.684Z,17.98
2022-09-07T11:57:58.158Z,15.15
2022-09-07T12:00:24.546Z,15.45
2022-09-07T12:03:00.277Z,15.63
2022-09-07T12:05:27.169Z,14.35
2022-09-07T12:07:53.746Z,13.65
2022-09-07T12:10:20.226Z,14.98
2022-09-07T12:12:46.502Z,13.32
2022-09-07T12:15:12.826Z,15.00
2022-09-07T12:17:39.112Z,13.60
2022-09-07T12:20:05.817Z,13.45
2022-09-07T12:22:32.795Z,13.77
2022-09-07T12:24:59.104Z,13.98
2022-09-07T12:27:25.396Z,13.63
2022-09-07T12:29:51.713Z,13.82
2022-09-07T12:35:04.397Z,13.85
2022-09-07T12:37:30.794Z,13.55
2022-09-07T12:39:57.281Z,14.23
2022-09-07T12:42:39.257Z,12.48
2022-09-07T12:45:05.566Z,13.38
2022-09-07T12:47:31.929Z,12.55
2022-09-07T12:49:58.339Z,14.07
2022-09-07T12:52:24.751Z,13.40
2022-09-07T12:55:10.095Z,14.75
2022-09-07T12:57:37.418Z,13.13
2022-09-07T13:00:03.737Z,13.35
2022-09-07T13:02:30.218Z,13.05
2022-09-07T13:04:56.566Z,13.32
2022-09-07T13:07:23.171Z,12.50
2022-09-07T13:09:49.663Z,13.23
2022-09-07T13:12:52.961Z,13.50
2022-09-07T13:15:02.523Z,12.85
2022-09-07T13:17:28.929Z,12.80
2022-09-07T13:19:55.314Z,13.30
2022-09-07T13:22:21.591Z,12.57
2022-09-07T13:24:48.018Z,12.65
2022-09-07T13:27:14.970Z,12.45
2022-09-07T13:29:41.303Z,13.35
2022-09-07T13:32:08.225Z,13.70
2022-09-07T13:34:34.534Z,13.13
2022-09-07T13:37:00.892Z,12.52
2022-09-07T13:39:27.252Z,13.10
2022-09-07T13:41:53.761Z,11.82
2022-09-07T13:44:25.634Z,13.50
2022-09-07T13:46:52.682Z,13.00
2022-09-07T13:49:18.978Z,13.00
2022-09-07T13:51:45.390Z,12.68
2022-09-07T13:54:11.651Z,13.75
2022-09-07T13:56:37.913Z,12.90
2022-09-07T13:59:04.352Z,13.10
2022-09-07T14:01:30.664Z,12.93
2022-09-07T14:03:56.979Z,12.00
2022-09-07T14:06:23.608Z,13.38
2022-09-07T14:08:50.045Z,12.98
2022-09-07T14:11:16.400Z,13.65
2022-09-07T14:13:43.031Z,12.73
2022-09-07T14:16:09.362Z,13.23
2022-09-07T14:18:35.781Z,13.02
2022-09-07T14:21:02.141Z,12.90
2022-09-07T14:23:29.010Z,13.68
2022-09-07T14:28:41.868Z,13.80
2022-09-07T14:31:08.322Z,13.60
2022-09-07T14:33:34.853Z,13.95
2022-09-07T14:36:13.097Z,12.15
2022-09-07T14:41:33.995Z,13.25
2022-09-07T14:44:00.349Z,14.75
2022-09-07T14:46:26.965Z,13.80
2022-09-07T14:48:55.133Z,13.18
2022-09-07T14:51:32.663Z,13.63
2022-09-07T14:54:02.199Z,16.00
2022-09-07T14:56:28.574Z,13.93
2022-09-07T14:58:55.057Z,14.60
2022-09-07T15:04:07.710Z,15.77
2022-09-07T15:09:21.005Z,14.50
2022-09-07T15:11:47.352Z,14.57
2022-09-07T15:14:13.874Z,13.18
2022-09-07T15:16:40.413Z,13.63
2022-09-07T15:19:06.713Z,13.85
2022-09-07T15:21:33.019Z,14.00
2022-09-07T15:23:59.354Z,13.88
2022-09-07T15:29:12.142Z,14.98
2022-09-07T15:31:41.706Z,13.50
2022-09-07T15:34:09.221Z,14.32
2022-09-07T15:36:35.575Z,12.95
2022-09-07T15:39:03.304Z,14.02
2022-09-07T15:41:30.034Z,12.93
2022-09-07T15:43:56.835Z,14.00
2022-09-07T15:46:23.411Z,13.43
2022-09-07T15:48:51.531Z,13.15
2022-09-07T15:54:12.161Z,13.40
2022-09-07T15:56:40.004Z,14.90
2022-09-07T15:59:06.354Z,17.95
2022-09-07T16:04:19.289Z,15.25
2022-09-07T16:06:48.308Z,14.35
2022-09-07T16:09:14.742Z,18.67
2022-09-07T16:11:41.132Z,15.60
2022-09-07T16:14:07.476Z,13.95
2022-09-07T16:19:21.236Z,15.13
2022-09-07T16:21:48.066Z,14.77
2022-09-07T16:24:14.413Z,14.13
2022-09-07T16:26:41.179Z,13.65
2022-09-07T16:29:08.015Z,14.80
2022-09-07T16:31:34.713Z,17.73
2022-09-07T16:34:01.485Z,15.25
2022-09-07T16:36:27.850Z,18.42
2022-09-07T16:38:54.237Z,17.40
2022-09-07T16:41:20.919Z,19.33
2022-09-07T16:43:47.380Z,17.58
2022-09-07T16:46:13.795Z,18.48
2022-09-07T16:48:40.075Z,17.88
2022-09-07T16:51:06.499Z,18.80
2022-09-07T16:53:32.716Z,18.80
2022-09-07T16:55:59.024Z,17.20
2022-09-07T16:58:40.729Z,20.20
2022-09-07T17:01:07.211Z,21.67
2022-09-07T17:03:33.694Z,19.15
2022-09-07T17:06:00.222Z,21.15
2022-09-07T17:08:26.620Z,19.95
2022-09-07T17:10:53.094Z,20.25
2022-09-07T17:13:19.350Z,20.55
2022-09-07T17:15:45.630Z,20.75
2022-09-07T17:18:11.892Z,20.98
2022-09-07T17:20:38.213Z,21.38
2022-09-07T17:23:05.522Z,21.75
2022-09-07T17:25:33.240Z,22.17
2022-09-07T17:28:00.031Z,23.10
2022-09-07T17:30:26.976Z,22.58
2022-09-07T17:32:53.425Z,23.40
2022-09-07T17:35:19.821Z,22.85
2022-09-07T17:37:46.255Z,24.05
2022-09-07T17:40:12.587Z,23.73
2022-09-07T17:45:27.731Z,23.75
2022-09-07T17:47:54.556Z,24.25
2022-09-07T17:50:20.892Z,25.02
2022-09-07T17:52:52.930Z,23.58
2022-09-07T17:55:19.655Z,24.35
2022-09-07T17:57:45.902Z,24.88
2022-09-07T18:00:12.631Z,23.67
2022-09-07T18:02:39.317Z,23.45
2022-09-07T18:05:07.061Z,23.75
2022-09-07T18:07:34.406Z,24.15
2022-09-07T18:10:00.734Z,23.63
2022-09-07T18:12:27.256Z,23.20
2022-09-07T18:14:53.506Z,23.95
2022-09-07T18:17:19.838Z,23.75
2022-09-07T18:19:46.887Z,23.30
2022-09-07T18:22:13.864Z,23.33
2022-09-07T18:24:41.562Z,23.98
2022-09-07T18:27:07.992Z,23.80
2022-09-07T18:29:34.714Z,23.70
2022-09-07T18:32:01.472Z,23.80
2022-09-07T18:34:28.551Z,24.45
2022-09-07T18:36:55.317Z,23.48
2022-09-07T18:39:21.896Z,24.23
2022-09-07T18:41:48.199Z,25.20
2022-09-07T18:47:01.381Z,24.08
2022-09-07T18:49:27.689Z,23.88
2022-09-07T18:54:40.475Z,23.65
2022-09-07T18:57:07.040Z,23.58
2022-09-07T18:59:33.566Z,23.48
2022-09-07T19:02:03.870Z,23.35
2022-09-07T19:07:18.362Z,23.75
2022-09-07T19:09:44.739Z,23.38
2022-09-07T19:12:11.019Z,23.48
2022-09-07T19:14:37.419Z,24.50
2022-09-07T19:17:03.754Z,22.13
2022-09-07T19:19:30.102Z,23.30
2022-09-07T19:21:57.065Z,23.48
2022-09-07T19:24:23.346Z,23.00
2022-09-07T19:26:49.639Z,21.63
2022-09-07T19:29:15.917Z,21.35
2022-09-07T19:31:42.440Z,20.58
2022-09-07T19:34:08.949Z,20.85
2022-09-07T19:36:35.419Z,19.55
2022-09-07T19:39:01.673Z,21.83
2022-09-07T19:41:27.977Z,20.33
2022-09-07T19:43:54.570Z,20.20
2022-09-07T19:46:24.800Z,18.33
2022-09-07T19:48:51.340Z,19.08
2022-09-07T19:51:17.724Z,18.70
2022-09-07T19:53:44.271Z,18.75
2022-09-07T19:56:10.721Z,17.60
2022-09-07T19:58:37.077Z,18.52
2022-09-07T20:01:03.755Z,17.65
2022-09-07T20:03:30.240Z,16.52
2022-09-07T20:05:56.884Z,16.95
2022-09-07T20:08:23.296Z,17.65
2022-09-07T20:10:49.724Z,18.15
2022-09-07T20:13:16.050Z,17.33
2022-09-07T20:15:42.370Z,18.00
2022-09-07T20:18:08.733Z,16.80
2022-09-07T20:20:35.014Z,16.92
2022-09-07T20:23:01.348Z,16.05
2022-09-07T20:25:28.008Z,16.65
2022-09-07T20:27:54.442Z,16.85
2022-09-07T20:30:20.822Z,15.43
2022-09-07T20:32:47.478Z,14.80
2022-09-07T20:35:13.821Z,14.80
2022-09-07T20:37:40.374Z,14.80
2022-09-07T20:40:06.705Z,16.80
2022-09-07T20:42:33.101Z,14.85
2022-09-07T20:44:59.606Z,15.73
2022-09-07T20:47:26.093Z,17.20
2022-09-07T20:49:52.528Z,15.07
2022-09-07T20:52:18.788Z,15.18
2022-09-07T20:54:45.369Z,15.07
2022-09-07T20:57:11.737Z,16.58
2022-09-07T20:59:38.320Z,15.95
2022-09-07T21:02:04.715Z,15.77
2022-09-07T21:04:31.024Z,13.90
2022-09-07T21:06:57.279Z,15.02
2022-09-07T21:09:23.573Z,15.82
2022-09-07T21:11:53.024Z,16.35
2022-09-07T21:14:21.894Z,14.93
2022-09-07T21:16:49.181Z,13.95
2022-09-07T21:19:15.694Z,13.60
2022-09-07T21:21:42.216Z,14.65
2022-09-07T21:24:08.740Z,14.55
2022-09-07T21:26:35.249Z,14.63
2022-09-07T21:29:01.797Z,14.90
2022-09-07T21:31:28.574Z,14.23
2022-09-07T21:33:55.462Z,14.90
2022-09-07T21:36:21.798Z,13.95
2022-09-07T21:38:48.091Z,13.63
2022-09-07T21:41:14.390Z,14.43
2022-09-07T21:43:40.777Z,15.40
2022-09-07T21:46:08.143Z,15.52
2022-09-07T21:48:34.678Z,13.52
2022-09-07T21:51:01.015Z,13.68
2022-09-07T21:53:27.313Z,12.13
2022-09-07T21:55:53.613Z,12.65
2022-09-07T21:58:19.918Z,13.48
2022-09-07T22:00:46.251Z,12.32
2022-09-07T22:03:12.810Z,13.32
2022-09-07T22:05:39.088Z,13.32
2022-09-07T22:08:05.639Z,13.23
2022-09-07T22:10:32.295Z,14.05
2022-09-07T22:12:58.670Z,13.57
2022-09-07T22:15:25.053Z,13.18
2022-09-07T22:17:51.474Z,12.73
2022-09-07T22:20:17.766Z,12.13
2022-09-07T22:22:44.164Z,12.60
2022-09-07T22:25:10.589Z,12.38
2022-09-07T22:27:36.867Z,13.23
2022-09-07T22:30:04.146Z,13.60
2022-09-07T22:32:30.761Z,12.38
2022-09-07T22:34:57.018Z,11.38
2022-09-07T22:37:23.464Z,12.07
2022-09-07T22:39:49.869Z,12.75
2022-09-07T22:42:16.337Z,11.90
2022-09-07T22:44:42.794Z,11.48
2022-09-07T22:47:09.113Z,11.45
2022-09-07T22:49:35.997Z,12.57
2022-09-07T22:52:02.316Z,12.85
2022-09-07T22:54:28.651Z,13.30
2022-09-07T22:56:55.073Z,12.30
2022-09-07T22:59:22.099Z,11.07
2022-09-07T23:01:48.332Z,11.73
2022-09-07T23:04:14.887Z,11.07
2022-09-07T23:06:41.274Z,11.73
2022-09-07T23:09:07.687Z,12.80
2022-09-07T23:11:34.044Z,11.02
2022-09-07T23:14:00.409Z,11.65
2022-09-07T23:16:27.085Z,12.15
2022-09-07T23:18:53.558Z,12.90
2022-09-07T23:21:21.222Z,12.00
2022-09-07T23:23:47.490Z,11.02
2022-09-07T23:26:13.836Z,13.43
2022-09-07T23:28:40.236Z,11.45
2022-09-07T23:31:06.641Z,12.90
2022-09-07T23:33:33.166Z,12.15
2022-09-07T23:35:59.723Z,11.50
2022-09-07T23:38:26.066Z,11.27
2022-09-07T23:40:52.586Z,10.65
2022-09-07T23:43:18.994Z,10.80
2022-09-07T23:45:45.410Z,11.93
2022-09-07T23:48:12.234Z,11.23
2022-09-07T23:50:38.518Z,10.77
2022-09-07T23:53:04.979Z,12.23
2022-09-07T23:55:31.294Z,11.60
2022-09-07T23:57:58.131Z,11.02
